createdAt,value
2023-03-06T00:01:00.395Z,97937.46
2023-03-06T00:03:28.655Z,97942.25
2023-03-06T00:05:58.943Z,97934.55
2023-03-06T00:16:07.241Z,97926.17
2023-03-06T00:18:35.899Z,97931.14
2023-03-06T00:21:11.542Z,97933.88
2023-03-06T00:23:41.399Z,97934.55
2023-03-06T00:26:10.206Z,97935.08
2023-03-06T00:28:40.822Z,97931.99
2023-03-06T00:31:15.100Z,97929.95
2023-03-06T00:33:45.715Z,97924.13
2023-03-06T00:36:14.496Z,97925.49
2023-03-06T00:38:42.675Z,97922.92
2023-03-06T00:41:11.712Z,97921.04
2023-03-06T00:43:40.660Z,97918.48
2023-03-06T00:46:09.685Z,97915.41
2023-03-06T00:48:38.327Z,97915.06
2023-03-06T00:51:13.485Z,97914.55
2023-03-06T00:53:42.173Z,97919.51
2023-03-06T00:56:10.861Z,97913.86
2023-03-06T00:58:39.017Z,97915.73
2023-03-06T01:01:07.319Z,97913.02
2023-03-06T01:03:36.096Z,97911.13
2023-03-06T01:06:06.602Z,97911.81
2023-03-06T01:08:38.004Z,97912.16
2023-03-06T01:11:07.630Z,97912.14
2023-03-06T01:13:35.793Z,97905.98
2023-03-06T01:16:08.877Z,97905.13
2023-03-06T01:18:38.160Z,97902.38
2023-03-06T01:21:06.512Z,97901.36
2023-03-06T01:23:36.631Z,97901.02
2023-03-06T01:26:05.061Z,97902.73
2023-03-06T01:28:35.294Z,97890.41
2023-03-06T01:31:04.687Z,97886.48
2023-03-06T01:33:34.302Z,97888.35
2023-03-06T01:36:07.053Z,97889.04
2023-03-06T01:38:35.607Z,97893.15
2023-03-06T01:41:04.081Z,97895.04
2023-03-06T01:43:36.718Z,97898.27
2023-03-06T01:46:44.165Z,97898.28
2023-03-06T01:49:20.311Z,97901.54
2023-03-06T01:51:53.130Z,97901.52
2023-03-06T01:54:22.963Z,97899.12
2023-03-06T01:56:54.815Z,97895.88
2023-03-06T01:59:22.896Z,97895.88
2023-03-06T02:01:51.800Z,97896.89
2023-03-06T02:04:20.074Z,97899.64
2023-03-06T02:06:48.393Z,97900.85
2023-03-06T02:09:18.198Z,97903.75
2023-03-06T02:11:51.336Z,97904.27
2023-03-06T02:14:19.796Z,97899.80
2023-03-06T02:16:49.629Z,97903.06
2023-03-06T02:19:31.476Z,97903.92
2023-03-06T02:22:00.054Z,97901.52
2023-03-06T02:24:50.443Z,97898.11
2023-03-06T02:27:19.333Z,97901.36
2023-03-06T02:29:47.401Z,97899.48
2023-03-06T02:32:16.132Z,97892.79
2023-03-06T02:34:47.988Z,97898.27
2023-03-06T02:37:16.263Z,97895.52
2023-03-06T02:39:48.063Z,97898.59
2023-03-06T02:42:21.208Z,97893.65
2023-03-06T02:44:49.239Z,97898.60
2023-03-06T02:47:17.515Z,97897.89
2023-03-06T02:49:47.646Z,97893.95
2023-03-06T02:52:16.042Z,97895.14
2023-03-06T02:54:44.416Z,97896.83
2023-03-06T02:57:15.274Z,97899.38
2023-03-06T02:59:43.681Z,97901.42
2023-03-06T03:02:12.770Z,97903.28
2023-03-06T03:04:42.218Z,97903.81
2023-03-06T03:07:17.137Z,97901.08
2023-03-06T03:09:45.313Z,97899.89
2023-03-06T03:12:16.275Z,97895.95
2023-03-06T03:14:48.566Z,97895.59
2023-03-06T03:17:17.380Z,97898.33
2023-03-06T03:19:48.432Z,97899.52
2023-03-06T03:22:17.444Z,97896.61
2023-03-06T03:24:48.174Z,97894.88
2023-03-06T03:27:16.769Z,97894.71
2023-03-06T03:29:46.494Z,97891.46
2023-03-06T03:32:14.823Z,97888.39
2023-03-06T03:34:43.287Z,97886.36
2023-03-06T03:37:11.676Z,97891.48
2023-03-06T03:39:39.602Z,97890.46
2023-03-06T03:45:00.678Z,97892.86
2023-03-06T03:47:29.791Z,97896.60
2023-03-06T03:49:59.014Z,97898.14
2023-03-06T03:52:27.594Z,97897.11
2023-03-06T03:54:56.061Z,97899.67
2023-03-06T03:57:24.532Z,97901.56
2023-03-06T03:59:53.669Z,97901.39
2023-03-06T04:02:44.225Z,97896.09
2023-03-06T04:05:22.805Z,97896.74
2023-03-06T04:07:54.997Z,97891.77
2023-03-06T04:10:23.383Z,97890.73
2023-03-06T04:12:51.948Z,97886.63
2023-03-06T04:15:24.718Z,97891.88
2023-03-06T04:17:53.854Z,97887.77
2023-03-06T04:20:26.144Z,97887.92
2023-03-06T04:22:54.831Z,97887.89
2023-03-06T04:25:23.733Z,97887.20
2023-03-06T04:27:52.325Z,97890.09
2023-03-06T04:30:21.121Z,97885.66
2023-03-06T04:32:49.513Z,97881.40
2023-03-06T04:35:17.835Z,97878.52
2023-03-06T04:37:54.003Z,97872.39
2023-03-06T04:40:29.603Z,97875.29
2023-03-06T04:42:59.704Z,97875.80
2023-03-06T04:45:28.663Z,97877.84
2023-03-06T04:48:00.582Z,97883.68
2023-03-06T04:50:32.543Z,97887.44
2023-03-06T04:53:03.624Z,97888.77
2023-03-06T04:55:33.004Z,97890.48
2023-03-06T04:58:01.108Z,97891.51
2023-03-06T05:00:31.511Z,97894.60
2023-03-06T05:03:00.268Z,97897.52
2023-03-06T05:05:28.319Z,97894.77
2023-03-06T05:07:56.605Z,97895.77
2023-03-06T05:10:27.087Z,97893.71
2023-03-06T05:12:56.464Z,97897.48
2023-03-06T05:15:24.671Z,97901.40
2023-03-06T05:17:56.628Z,97901.77
2023-03-06T05:20:24.819Z,97909.46
2023-03-06T05:22:56.085Z,97910.34
2023-03-06T05:25:24.466Z,97908.12
2023-03-06T05:27:52.772Z,97908.30
2023-03-06T05:30:23.185Z,97908.83
2023-03-06T05:32:52.274Z,97909.17
2023-03-06T05:35:22.078Z,97909.70
2023-03-06T05:37:50.203Z,97907.13
2023-03-06T05:43:42.270Z,97899.98
2023-03-06T05:46:11.528Z,97901.53
2023-03-06T05:48:39.882Z,97907.70
2023-03-06T05:51:08.038Z,97907.36
2023-03-06T05:53:36.766Z,97910.26
2023-03-06T05:56:10.853Z,97914.18
2023-03-06T05:58:41.630Z,97918.43
2023-03-06T06:01:14.793Z,97920.98
2023-03-06T06:03:43.759Z,97926.81
2023-03-06T06:06:13.144Z,97931.73
2023-03-06T06:08:44.083Z,97938.23
2023-03-06T06:11:12.901Z,97934.31
2023-03-06T06:13:45.217Z,97933.80
2023-03-06T06:16:16.498Z,97933.46
2023-03-06T06:18:45.321Z,97934.66
2023-03-06T06:21:18.897Z,97942.52
2023-03-06T06:23:47.892Z,97949.05
2023-03-06T06:26:16.183Z,97949.05
2023-03-06T06:28:44.584Z,97948.06
2023-03-06T06:31:13.427Z,97952.88
2023-03-06T06:33:42.923Z,97955.47
2023-03-06T06:36:20.730Z,97959.09
2023-03-06T06:38:50.844Z,97963.19
2023-03-06T06:44:13.883Z,97964.25
2023-03-06T06:49:33.746Z,97972.48
2023-03-06T06:52:02.201Z,97975.08
2023-03-06T06:54:30.254Z,97976.77
2023-03-06T06:56:58.382Z,97970.09
2023-03-06T06:59:27.039Z,97973.34
2023-03-06T07:01:55.263Z,97976.09
2023-03-06T07:04:23.564Z,97979.52
2023-03-06T07:06:55.775Z,97979.88
2023-03-06T07:09:24.250Z,97980.39
2023-03-06T07:11:53.608Z,97979.53
2023-03-06T07:14:21.922Z,97975.27
2023-03-06T07:16:50.039Z,97976.30
2023-03-06T07:19:21.051Z,97984.88
2023-03-06T07:21:49.247Z,97985.39
2023-03-06T07:24:17.612Z,97983.34
2023-03-06T07:26:47.373Z,97986.76
2023-03-06T07:29:16.019Z,97984.38
2023-03-06T07:31:44.272Z,97982.83
2023-03-06T07:34:13.105Z,97979.57
2023-03-06T07:36:41.518Z,97982.83
2023-03-06T07:39:10.008Z,97982.31
2023-03-06T07:41:40.947Z,97987.47
2023-03-06T07:44:13.227Z,97983.55
2023-03-06T07:46:41.669Z,97984.06
2023-03-06T07:49:09.871Z,97986.64
2023-03-06T07:51:39.509Z,97985.44
2023-03-06T07:54:08.024Z,97987.49
2023-03-06T07:56:36.950Z,97991.95
2023-03-06T07:59:05.069Z,97991.11
2023-03-06T08:01:33.368Z,97990.41
2023-03-06T08:04:02.147Z,97993.16
2023-03-06T08:06:30.412Z,97989.05
2023-03-06T08:08:58.899Z,97992.64
2023-03-06T08:11:28.662Z,97991.77
2023-03-06T08:13:58.557Z,97990.73
2023-03-06T08:16:29.351Z,97993.47
2023-03-06T08:18:58.526Z,97996.73
2023-03-06T08:21:27.774Z,97995.86
2023-03-06T08:23:56.263Z,97997.20
2023-03-06T08:26:26.623Z,97995.95
2023-03-06T08:28:55.649Z,97990.43
2023-03-06T08:31:32.740Z,97992.95
2023-03-06T08:34:03.501Z,97988.45
2023-03-06T08:36:37.336Z,97989.27
2023-03-06T08:39:06.082Z,97992.33
2023-03-06T08:41:34.788Z,97994.20
2023-03-06T08:44:04.012Z,97999.13
2023-03-06T08:46:33.028Z,97996.14
2023-03-06T08:49:02.579Z,97996.23
2023-03-06T08:51:31.408Z,97997.98
2023-03-06T08:54:05.231Z,97996.68
2023-03-06T08:56:34.147Z,97990.70
2023-03-06T08:59:04.618Z,97991.60
2023-03-06T09:01:35.117Z,97992.36
2023-03-06T09:04:23.026Z,97991.75
2023-03-06T09:09:25.515Z,98001.06
2023-03-06T09:11:54.997Z,97999.11
2023-03-06T09:14:23.592Z,98000.98
2023-03-06T09:16:52.293Z,97997.32
2023-03-06T09:19:20.485Z,98002.75
2023-03-06T09:21:49.220Z,98002.80
2023-03-06T09:24:17.742Z,98006.64
2023-03-06T09:26:47.974Z,98002.55
2023-03-06T09:29:17.704Z,98006.34
2023-03-06T09:31:48.465Z,98010.27
2023-03-06T09:34:17.092Z,98008.76
2023-03-06T09:36:56.411Z,98010.59
2023-03-06T09:39:25.696Z,98012.23
2023-03-06T09:41:54.446Z,98011.13
2023-03-06T09:44:27.820Z,98014.48
2023-03-06T09:47:18.158Z,98014.38
2023-03-06T09:49:52.824Z,98010.62
2023-03-06T09:52:30.266Z,98011.13
2023-03-06T09:55:01.311Z,98013.98
2023-03-06T09:57:36.872Z,98015.55
2023-03-06T10:00:12.747Z,98013.64
2023-03-06T10:02:42.753Z,98015.65
2023-03-06T10:05:22.140Z,98013.55
2023-03-06T10:08:00.885Z,98015.77
2023-03-06T10:10:55.054Z,98013.75
2023-03-06T10:13:26.410Z,98008.63
2023-03-06T10:15:58.781Z,98003.46
2023-03-06T10:18:27.236Z,97997.87
2023-03-06T10:21:13.360Z,98004.59
2023-03-06T10:24:12.726Z,98004.93
2023-03-06T10:27:03.518Z,97998.83
2023-03-06T10:30:04.687Z,97999.91
2023-03-06T10:32:47.491Z,97992.84
2023-03-06T10:35:21.942Z,97991.60
2023-03-06T10:37:50.120Z,97987.73
2023-03-06T10:40:21.008Z,97985.67
2023-03-06T10:42:56.073Z,97990.63
2023-03-06T10:45:40.565Z,97985.08
2023-03-06T10:48:22.510Z,97982.02
2023-03-06T10:50:51.063Z,97979.14
2023-03-06T10:53:26.893Z,97979.91
2023-03-06T10:55:56.995Z,97973.29
2023-03-06T10:58:27.826Z,97968.26
2023-03-06T11:01:08.112Z,97963.27
2023-03-06T11:03:36.668Z,97966.83
2023-03-06T11:06:13.458Z,97959.90
2023-03-06T11:08:44.495Z,97956.19
2023-03-06T11:11:15.904Z,97948.02
2023-03-06T11:13:55.772Z,97945.14
2023-03-06T11:16:27.275Z,97937.71
2023-03-06T11:19:01.260Z,97937.04
2023-03-06T11:21:31.707Z,97932.31
2023-03-06T11:24:35.826Z,97930.70
2023-03-06T11:27:17.113Z,97926.61
2023-03-06T11:29:47.304Z,97923.35
2023-03-06T11:32:16.725Z,97920.10
2023-03-06T11:34:45.467Z,97920.71
2023-03-06T11:37:23.818Z,97918.80
2023-03-06T11:39:54.804Z,97924.30
2023-03-06T11:42:28.243Z,97920.46
2023-03-06T11:45:26.153Z,97917.32
2023-03-06T11:48:18.891Z,97905.96
2023-03-06T11:50:57.207Z,97907.86
2023-03-06T11:53:55.228Z,97905.85
2023-03-06T11:56:49.549Z,97904.96
2023-03-06T12:00:01.261Z,97905.52
2023-03-06T12:02:32.974Z,97898.61
2023-03-06T12:05:10.966Z,97899.11
2023-03-06T12:07:57.773Z,97898.01
2023-03-06T12:10:34.905Z,97898.27
2023-03-06T12:13:29.989Z,97892.97
2023-03-06T12:16:16.873Z,97888.63
2023-03-06T12:19:17.696Z,97889.80
2023-03-06T12:21:48.828Z,97890.69
2023-03-06T12:24:23.614Z,97884.09
2023-03-06T12:26:57.546Z,97884.96
2023-03-06T12:29:40.479Z,97880.00
2023-03-06T12:32:21.829Z,97879.36
2023-03-06T12:34:56.824Z,97879.30
2023-03-06T12:37:45.915Z,97878.45
2023-03-06T12:40:40.165Z,97878.08
2023-03-06T12:43:11.843Z,97876.60
2023-03-06T12:45:40.285Z,97877.77
2023-03-06T12:48:25.829Z,97875.55
2023-03-06T12:50:54.226Z,97879.66
2023-03-06T12:53:27.685Z,97877.36
2023-03-06T12:56:02.118Z,97876.66
2023-03-06T12:58:30.820Z,97871.83
2023-03-06T13:01:27.574Z,97875.12
2023-03-06T13:04:17.198Z,97872.27
2023-03-06T13:07:40.260Z,97869.51
2023-03-06T13:10:10.517Z,97867.40
2023-03-06T13:12:43.126Z,97866.67
2023-03-06T13:15:39.365Z,97865.42
2023-03-06T13:18:21.887Z,97864.18
2023-03-06T13:20:51.936Z,97858.65
2023-03-06T13:23:34.175Z,97858.30
2023-03-06T13:26:09.248Z,97855.64
2023-03-06T13:29:26.652Z,97851.77
2023-03-06T13:31:54.852Z,97849.68
2023-03-06T13:34:36.386Z,97846.54
2023-03-06T13:37:18.549Z,97843.27
2023-03-06T13:39:56.907Z,97840.71
2023-03-06T13:42:38.003Z,97833.62
2023-03-06T13:45:15.090Z,97834.77
2023-03-06T13:50:44.388Z,97831.18
2023-03-06T13:53:46.818Z,97826.05
2023-03-06T13:56:24.080Z,97826.57
2023-03-06T13:59:02.757Z,97823.23
2023-03-06T14:02:05.184Z,97813.36
2023-03-06T14:04:43.119Z,97814.42
2023-03-06T14:07:42.456Z,97811.69
2023-03-06T14:10:14.982Z,97806.95
2023-03-06T14:12:55.687Z,97805.69
2023-03-06T14:15:45.367Z,97812.73
2023-03-06T14:18:14.775Z,97816.98
2023-03-06T14:21:01.164Z,97816.02
2023-03-06T14:23:34.441Z,97815.61
2023-03-06T14:26:24.409Z,97813.39
2023-03-06T14:28:52.596Z,97810.52
2023-03-06T14:31:41.724Z,97817.33
2023-03-06T14:34:22.097Z,97812.02
2023-03-06T14:37:01.454Z,97809.70
2023-03-06T14:39:40.716Z,97812.23
2023-03-06T14:42:21.878Z,97812.55
2023-03-06T14:45:01.470Z,97813.20
2023-03-06T14:47:36.420Z,97819.85
2023-03-06T14:50:27.495Z,97818.03
2023-03-06T14:53:14.596Z,97815.19
2023-03-06T14:55:50.415Z,97820.35
2023-03-06T14:58:22.061Z,97818.58
2023-03-06T15:00:51.384Z,97813.14
2023-03-06T15:03:23.086Z,97815.29
2023-03-06T15:05:51.164Z,97818.25
2023-03-06T15:08:22.695Z,97816.92
2023-03-06T15:11:09.176Z,97820.23
2023-03-06T15:13:39.443Z,97822.52
2023-03-06T15:16:13.823Z,97824.31
2023-03-06T15:18:54.410Z,97825.05
2023-03-06T15:21:23.117Z,97828.78
2023-03-06T15:23:52.348Z,97824.56
2023-03-06T15:26:34.050Z,97831.37
2023-03-06T15:29:11.220Z,97834.02
2023-03-06T15:31:42.549Z,97835.15
2023-03-06T15:34:10.654Z,97836.08
2023-03-06T15:36:46.341Z,97838.20
2023-03-06T15:39:32.838Z,97841.36
2023-03-06T15:42:16.321Z,97843.30
2023-03-06T15:44:47.930Z,97843.69
2023-03-06T15:47:16.515Z,97843.05
2023-03-06T15:49:49.044Z,97846.38
2023-03-06T15:52:17.696Z,97846.09
2023-03-06T15:54:46.411Z,97842.36
2023-03-06T15:57:25.420Z,97843.98
2023-03-06T15:59:53.846Z,97845.22
2023-03-06T16:02:22.648Z,97845.95
2023-03-06T16:04:51.542Z,97844.27
2023-03-06T16:07:20.746Z,97844.48
2023-03-06T16:09:50.783Z,97846.23
2023-03-06T16:12:20.537Z,97844.16
2023-03-06T16:14:48.951Z,97846.60
2023-03-06T16:17:17.356Z,97851.46
2023-03-06T16:19:45.936Z,97855.45
2023-03-06T16:22:14.493Z,97854.92
2023-03-06T16:24:43.417Z,97857.02
2023-03-06T16:27:18.777Z,97856.52
2023-03-06T16:29:49.454Z,97848.96
2023-03-06T16:32:17.806Z,97855.16
2023-03-06T16:34:46.267Z,97855.52
2023-03-06T16:37:16.772Z,97852.41
2023-03-06T16:39:44.999Z,97853.11
2023-03-06T16:42:13.414Z,97848.96
2023-03-06T16:44:41.602Z,97851.36
2023-03-06T16:47:12.989Z,97850.15
2023-03-06T16:49:42.415Z,97851.86
2023-03-06T16:52:11.073Z,97854.58
2023-03-06T16:54:44.575Z,97856.31
2023-03-06T16:57:14.348Z,97854.27
2023-03-06T16:59:42.618Z,97860.47
2023-03-06T17:02:12.037Z,97855.48
2023-03-06T17:04:40.217Z,97852.09
2023-03-06T17:07:08.449Z,97849.35
2023-03-06T17:09:37.273Z,97853.48
2023-03-06T17:12:05.685Z,97847.85
2023-03-06T17:14:34.716Z,97848.77
2023-03-06T17:17:03.197Z,97849.32
2023-03-06T17:19:35.943Z,97847.14
2023-03-06T17:22:05.283Z,97845.46
2023-03-06T17:24:35.490Z,97841.88
2023-03-06T17:27:06.863Z,97841.22
2023-03-06T17:29:35.416Z,97839.55
2023-03-06T17:32:03.762Z,97835.45
2023-03-06T17:34:32.607Z,97833.24
2023-03-06T17:37:01.460Z,97832.08
2023-03-06T17:39:33.733Z,97833.14
2023-03-06T17:42:03.387Z,97833.51
2023-03-06T17:44:32.478Z,97831.30
2023-03-06T17:47:00.573Z,97831.49
2023-03-06T17:49:28.863Z,97836.52
2023-03-06T17:51:59.712Z,97832.23
2023-03-06T17:54:29.904Z,97834.16
2023-03-06T17:57:01.122Z,97828.52
2023-03-06T17:59:30.552Z,97823.41
2023-03-06T18:01:59.982Z,97824.13
2023-03-06T18:04:28.453Z,97822.63
2023-03-06T18:06:58.410Z,97821.11
2023-03-06T18:09:27.383Z,97815.31
2023-03-06T18:11:55.560Z,97814.31
2023-03-06T18:14:24.494Z,97817.97
2023-03-06T18:16:54.078Z,97815.61
2023-03-06T18:19:22.582Z,97811.20
2023-03-06T18:21:51.667Z,97812.94
2023-03-06T18:24:21.825Z,97812.14
2023-03-06T18:26:50.918Z,97819.72
2023-03-06T18:29:22.613Z,97816.31
2023-03-06T18:31:51.489Z,97813.42
2023-03-06T18:34:19.650Z,97809.34
2023-03-06T18:36:51.537Z,97809.01
2023-03-06T18:39:21.467Z,97803.89
2023-03-06T18:41:53.649Z,97799.29
2023-03-06T18:44:22.139Z,97794.86
2023-03-06T18:46:50.235Z,97792.48
2023-03-06T18:49:19.254Z,97793.35
2023-03-06T18:51:51.167Z,97790.80
2023-03-06T18:54:19.698Z,97787.89
2023-03-06T18:56:48.058Z,97791.52
2023-03-06T18:59:36.005Z,97786.04
2023-03-06T19:02:04.923Z,97795.48
2023-03-06T19:04:33.421Z,97789.65
2023-03-06T19:07:02.375Z,97787.77
2023-03-06T19:09:30.875Z,97786.23
2023-03-06T19:12:00.672Z,97780.39
2023-03-06T19:14:30.324Z,97776.80
2023-03-06T19:16:58.708Z,97777.48
2023-03-06T19:19:32.586Z,97775.25
2023-03-06T19:22:01.093Z,97774.07
2023-03-06T19:24:36.672Z,97773.39
2023-03-06T19:27:05.184Z,97771.33
2023-03-06T19:29:33.410Z,97768.73
2023-03-06T19:32:01.686Z,97771.14
2023-03-06T19:34:30.440Z,97766.51
2023-03-06T19:37:03.265Z,97762.56
2023-03-06T19:39:33.293Z,97758.43
2023-03-06T19:42:04.684Z,97751.23
2023-03-06T19:44:34.869Z,97750.20
2023-03-06T19:47:03.079Z,97753.45
2023-03-06T19:49:33.036Z,97750.00
2023-03-06T19:52:01.315Z,97751.38
2023-03-06T19:54:32.411Z,97747.93
2023-03-06T19:57:01.556Z,97742.77
2023-03-06T19:59:33.562Z,97737.77
2023-03-06T20:02:01.706Z,97735.71
2023-03-06T20:04:34.625Z,97736.39
2023-03-06T20:07:04.869Z,97730.55
2023-03-06T20:09:35.729Z,97726.44
2023-03-06T20:12:08.361Z,97724.91
2023-03-06T20:14:37.239Z,97724.73
2023-03-06T20:17:05.334Z,97718.23
2023-03-06T20:19:34.550Z,97719.09
2023-03-06T20:22:03.359Z,97715.99
2023-03-06T20:24:31.548Z,97718.24
2023-03-06T20:26:59.544Z,97711.55
2023-03-06T20:29:28.476Z,97705.90
2023-03-06T20:32:02.545Z,97699.89
2023-03-06T20:34:32.105Z,97701.27
2023-03-06T20:37:00.300Z,97702.48
2023-03-06T20:39:30.484Z,97698.69
2023-03-06T20:42:00.038Z,97691.98
2023-03-06T20:44:28.445Z,97697.30
2023-03-06T20:46:56.786Z,97693.67
2023-03-06T20:49:27.154Z,97690.57
2023-03-06T20:51:56.928Z,97692.64
2023-03-06T20:54:26.038Z,97688.02
2023-03-06T20:56:54.703Z,97688.21
2023-03-06T20:59:25.158Z,97683.93
2023-03-06T21:01:53.359Z,97681.87
2023-03-06T21:04:22.569Z,97676.55
2023-03-06T21:06:52.704Z,97671.22
2023-03-06T21:09:21.023Z,97667.98
2023-03-06T21:11:52.145Z,97668.14
2023-03-06T21:14:20.601Z,97660.92
2023-03-06T21:16:48.839Z,97658.88
2023-03-06T21:19:20.042Z,97655.77
2023-03-06T21:21:48.426Z,97656.12
2023-03-06T21:24:16.939Z,97654.07
2023-03-06T21:28:17.282Z,97647.52
2023-03-06T21:30:44.898Z,97644.82
2023-03-06T21:33:12.328Z,97636.09
2023-03-06T21:35:39.830Z,97635.57
2023-03-06T21:38:07.296Z,97636.81
2023-03-06T21:40:35.821Z,97636.46
2023-03-06T21:43:03.335Z,97637.67
2023-03-06T21:45:31.410Z,97635.61
2023-03-06T21:48:01.017Z,97635.08
2023-03-06T21:50:29.090Z,97648.44
2023-03-06T21:52:55.861Z,97649.96
2023-03-06T21:55:23.195Z,97645.63
2023-03-06T21:57:51.171Z,97652.80
2023-03-06T22:00:18.949Z,97640.59
2023-03-06T22:02:46.240Z,97640.56
2023-03-06T22:05:13.389Z,97643.13
2023-03-06T22:07:40.755Z,97644.16
2023-03-06T22:10:11.325Z,97638.16
2023-03-06T22:12:39.223Z,97631.28
2023-03-06T22:15:07.004Z,97627.20
2023-03-06T22:17:34.481Z,97623.77
2023-03-06T22:20:01.505Z,97625.33
2023-03-06T22:22:30.017Z,97635.98
2023-03-06T22:24:58.064Z,97644.41
2023-03-06T22:27:25.023Z,97649.41
2023-03-06T22:29:52.585Z,97652.70
2023-03-06T22:32:19.867Z,97662.34
2023-03-06T22:34:46.816Z,97657.71
2023-03-06T22:37:33.486Z,97657.93
2023-03-06T22:40:01.119Z,97660.90
2023-03-06T22:42:28.808Z,97669.16
2023-03-06T22:44:55.802Z,97669.36
2023-03-06T22:47:22.778Z,97668.54
2023-03-06T22:57:22.470Z,97685.21
2023-03-06T22:59:50.843Z,97694.83
2023-03-06T23:02:23.452Z,97700.02
2023-03-06T23:04:53.388Z,97708.29
2023-03-06T23:07:22.376Z,97710.36
2023-03-06T23:09:52.216Z,97706.94
2023-03-06T23:12:41.679Z,97689.84
2023-03-06T23:15:28.986Z,97683.92
2023-03-06T23:18:16.448Z,97680.40
2023-03-06T23:21:11.727Z,97686.81
2023-03-06T23:23:59.014Z,97696.95
2023-03-06T23:26:29.222Z,97692.02
2023-03-06T23:28:57.780Z,97694.77
2023-03-06T23:31:28.954Z,97695.66
2023-03-06T23:33:58.553Z,97690.88
2023-03-06T23:36:26.737Z,97693.63
2023-03-06T23:38:55.431Z,97688.67
2023-03-06T23:41:24.224Z,97690.93
2023-03-06T23:43:55.042Z,97692.68
2023-03-06T23:46:23.675Z,97697.33
2023-03-06T23:48:52.236Z,97700.61
2023-03-06T23:51:21.683Z,97703.54
2023-03-06T23:53:58.294Z,97705.45
2023-03-06T23:56:27.371Z,97703.22
2023-03-06T23:58:55.976Z,97697.42
